Terminal Aerodrome Forecast
Issued by NWS

Home | Current Version | Previous Version | Text Only | Print | Product List | Glossary On
Versions: 1 2 3 4 5 6 7 8 9 10 11 12 13 14 15 16 17 18 19 20 21
000
FTUS44 KJAN 261700
TAFGTR
TAF
KGTR 261720Z 2618/2718 15008KT P6SM SCT100 BKN120
     FM270300 15008KT P6SM OVC060
     FM271200 14008KT P6SM -RA OVC030=

USA.gov is the U.S. government's official web portal to all federal, state and local government web resources and services.